Time,TemperatureF,DewpointF,PressureIn,WindDirection,WindDirectionDegrees,WindSpeedMPH,WindSpeedGustMPH,Humidity,HourlyPrecipIn,Conditions,Clouds,dailyrainin,SolarRadiationWatts/m^2,SoftwareType,DateUTC
2013-09-15 00:21:00,60.0,59.0,-100.00,North,5,7.0,13.0,97,0.00,,,0.00,0.000000,,2013-09-15 06:21:00,
2013-09-15 00:33:00,60.0,59.0,-100.00,North,5,7.0,13.0,97,0.00,,,0.00,0.000000,,2013-09-15 06:33:00,
2013-09-15 00:42:00,60.0,59.0,-100.00,North,5,7.0,13.0,97,0.00,,,0.00,0.000000,,2013-09-15 06:42:00,
2013-09-15 00:51:00,61.0,59.0,-100.00,NNE,30,8.0,11.0,92,0.00,,,0.00,0.000000,,2013-09-15 06:51:00,
2013-09-15 01:22:00,61.0,59.0,-100.00,NNE,30,8.0,11.0,92,0.00,,,0.00,0.000000,,2013-09-15 07:22:00,
2013-09-15 01:33:00,61.0,59.0,-100.00,NNE,30,8.0,11.0,92,0.00,,,0.00,0.000000,,2013-09-15 07:33:00,
2013-09-15 01:42:00,61.0,59.0,-100.00,NNE,30,8.0,11.0,92,0.00,,,0.00,0.000000,,2013-09-15 07:42:00,
2013-09-15 01:51:00,60.0,59.0,-100.00,NE,52,6.0,11.0,96,0.00,,,0.00,0.000000,,2013-09-15 07:51:00,
2013-09-15 02:22:00,60.0,59.0,-100.00,NE,52,6.0,11.0,96,0.00,,,0.00,0.000000,,2013-09-15 08:22:00,
2013-09-15 02:32:00,60.0,59.0,-100.00,NE,52,6.0,11.0,96,0.00,,,0.00,0.000000,,2013-09-15 08:32:00,
2013-09-15 02:43:00,60.0,59.0,-100.00,NE,52,6.0,11.0,96,0.00,,,0.00,0.000000,,2013-09-15 08:43:00,
2013-09-15 02:51:00,58.0,56.0,-100.00,ENE,63,5.0,13.0,94,0.00,,,0.00,0.000000,,2013-09-15 08:51:00,
2013-09-15 03:22:00,58.0,56.0,-100.00,ENE,63,5.0,13.0,94,0.00,,,0.00,0.000000,,2013-09-15 09:22:00,
2013-09-15 03:33:00,58.0,56.0,-100.00,ENE,63,5.0,13.0,94,0.00,,,0.00,0.000000,,2013-09-15 09:33:00,
2013-09-15 03:43:00,58.0,56.0,-100.00,ENE,63,5.0,13.0,94,0.00,,,0.00,0.000000,,2013-09-15 09:43:00,
2013-09-15 03:51:00,58.0,57.0,-100.00,ENE,58,6.0,11.0,96,0.00,,,0.00,0.000000,,2013-09-15 09:51:00,
2013-09-15 04:23:00,58.0,57.0,-100.00,ENE,58,6.0,11.0,96,0.00,,,0.00,0.000000,,2013-09-15 10:23:00,
2013-09-15 04:32:00,58.0,57.0,-100.00,ENE,58,6.0,11.0,96,0.00,,,0.00,0.000000,,2013-09-15 10:32:00,
2013-09-15 04:43:00,58.0,57.0,-100.00,ENE,58,6.0,11.0,96,0.00,,,0.00,0.000000,,2013-09-15 10:43:00,
2013-09-15 04:51:00,56.0,53.0,-100.00,East,88,9.0,14.0,90,0.00,,,0.00,0.000000,,2013-09-15 10:51:00,
2013-09-15 05:22:00,56.0,53.0,-100.00,East,88,9.0,14.0,90,0.00,,,0.00,0.000000,,2013-09-15 11:22:00,
2013-09-15 05:33:00,56.0,53.0,-100.00,East,88,9.0,14.0,90,0.00,,,0.00,0.000000,,2013-09-15 11:33:00,
2013-09-15 05:42:00,56.0,53.0,-100.00,East,88,9.0,14.0,90,0.00,,,0.00,0.000000,,2013-09-15 11:42:00,
2013-09-15 05:51:00,55.0,52.0,-100.00,ENE,63,6.0,13.0,90,0.00,,,0.00,0.000000,,2013-09-15 11:51:00,
2013-09-15 06:21:00,55.0,52.0,-100.00,ENE,63,6.0,13.0,90,0.00,,,0.00,0.000000,,2013-09-15 12:21:00,
2013-09-15 06:32:00,55.0,52.0,-100.00,ENE,63,6.0,13.0,90,0.00,,,0.00,0.000000,,2013-09-15 12:32:00,
2013-09-15 06:42:00,55.0,52.0,-100.00,ENE,63,6.0,13.0,90,0.00,,,0.00,0.000000,,2013-09-15 12:42:00,
2013-09-15 06:51:00,54.0,51.0,-100.00,ESE,110,6.0,14.0,89,0.00,,,0.00,1.000000,,2013-09-15 12:51:00,
2013-09-15 07:21:00,54.0,51.0,-100.00,ESE,110,6.0,14.0,89,0.00,,,0.00,1.000000,,2013-09-15 13:21:00,
2013-09-15 07:32:00,54.0,51.0,-100.00,ESE,110,6.0,14.0,89,0.00,,,0.00,1.000000,,2013-09-15 13:32:00,
2013-09-15 07:42:00,54.0,51.0,-100.00,ESE,110,6.0,14.0,89,0.00,,,0.00,1.000000,,2013-09-15 13:42:00,
2013-09-15 08:22:00,58.0,54.0,-100.00,SE,126,2.0,9.0,85,0.00,,,0.00,58.000000,,2013-09-15 14:22:00,
2013-09-15 12:51:00,66.0,49.0,-100.00,SE,137,10.0,19.0,55,0.00,,,0.00,447.000000,,2013-09-15 18:51:00,
2013-09-15 13:22:00,66.0,49.0,-100.00,SE,137,10.0,19.0,55,0.00,,,0.00,447.000000,,2013-09-15 19:22:00,
2013-09-15 13:32:00,66.0,49.0,-100.00,SE,137,10.0,19.0,55,0.00,,,0.00,447.000000,,2013-09-15 19:32:00,
2013-09-15 13:42:00,66.0,49.0,-100.00,SE,137,10.0,19.0,55,0.00,,,0.00,447.000000,,2013-09-15 19:42:00,
2013-09-15 13:51:00,66.0,50.0,-100.00,SSE,167,13.0,20.0,57,0.00,,,0.00,451.000000,,2013-09-15 19:51:00,
2013-09-15 14:22:00,66.0,50.0,-100.00,SSE,167,13.0,20.0,57,0.00,,,0.00,451.000000,,2013-09-15 20:22:00,
2013-09-15 14:32:00,66.0,50.0,-100.00,SSE,167,13.0,20.0,57,0.00,,,0.00,451.000000,,2013-09-15 20:32:00,
2013-09-15 14:42:00,66.0,50.0,-100.00,SSE,167,13.0,20.0,57,0.00,,,0.00,451.000000,,2013-09-15 20:42:00,
2013-09-15 14:51:00,69.0,50.0,-100.00,South,172,14.0,23.0,50,0.00,,,0.00,688.000000,,2013-09-15 20:51:00,
2013-09-15 15:21:00,69.0,50.0,-100.00,South,172,14.0,23.0,50,0.00,,,0.00,688.000000,,2013-09-15 21:21:00,
2013-09-15 15:34:00,69.0,50.0,-100.00,South,172,14.0,23.0,50,0.00,,,0.00,688.000000,,2013-09-15 21:34:00,
2013-09-15 15:44:00,69.0,50.0,-100.00,South,172,14.0,23.0,50,0.00,,,0.00,688.000000,,2013-09-15 21:44:00,
2013-09-15 15:51:00,69.0,49.0,-100.00,South,180,13.0,25.0,49,0.00,,,0.00,501.000000,,2013-09-15 21:51:00,
2013-09-15 16:23:00,69.0,49.0,-100.00,South,180,13.0,25.0,49,0.00,,,0.00,501.000000,,2013-09-15 22:23:00,
2013-09-15 16:33:00,69.0,49.0,-100.00,South,180,13.0,25.0,49,0.00,,,0.00,501.000000,,2013-09-15 22:33:00,
2013-09-15 16:44:00,69.0,49.0,-100.00,South,180,13.0,25.0,49,0.00,,,0.00,501.000000,,2013-09-15 22:44:00,
2013-09-15 16:51:00,68.0,48.0,-100.00,South,175,16.0,24.0,49,0.00,,,0.00,252.000000,,2013-09-15 22:51:00,
2013-09-15 17:22:00,68.0,48.0,-100.00,South,175,16.0,24.0,49,0.00,,,0.00,252.000000,,2013-09-15 23:22:00,
2013-09-15 17:33:00,68.0,48.0,-100.00,South,175,16.0,24.0,49,0.00,,,0.00,252.000000,,2013-09-15 23:33:00,
2013-09-15 17:42:00,68.0,48.0,-100.00,South,175,16.0,24.0,49,0.00,,,0.00,252.000000,,2013-09-15 23:42:00,
2013-09-15 17:51:00,64.0,45.0,-100.00,South,175,22.0,30.0,51,0.00,,,0.00,192.000000,,2013-09-15 23:51:00,
2013-09-15 18:22:00,64.0,45.0,-100.00,South,175,22.0,30.0,51,0.00,,,0.00,192.000000,,2013-09-16 00:22:00,
2013-09-15 18:32:00,64.0,45.0,-100.00,South,175,22.0,30.0,51,0.00,,,0.00,192.000000,,2013-09-16 00:32:00,
2013-09-15 18:42:00,64.0,45.0,-100.00,South,175,22.0,30.0,51,0.00,,,0.00,192.000000,,2013-09-16 00:42:00,
2013-09-15 18:51:00,64.0,47.0,-100.00,South,178,22.0,30.0,54,0.00,,,0.00,62.000000,,2013-09-16 00:51:00,
2013-09-15 19:21:00,64.0,47.0,-100.00,South,178,22.0,30.0,54,0.00,,,0.00,62.000000,,2013-09-16 01:21:00,
2013-09-15 19:32:00,64.0,47.0,-100.00,South,178,22.0,30.0,54,0.00,,,0.00,62.000000,,2013-09-16 01:32:00,
2013-09-15 19:42:00,64.0,47.0,-100.00,South,178,22.0,30.0,54,0.00,,,0.00,62.000000,,2013-09-16 01:42:00,
2013-09-15 19:51:00,59.0,45.0,-100.00,South,188,17.0,32.0,59,0.00,,,0.00,5.000000,,2013-09-16 01:51:00,
2013-09-15 20:22:00,59.0,45.0,-100.00,South,188,17.0,32.0,59,0.00,,,0.00,5.000000,,2013-09-16 02:22:00,
2013-09-15 20:32:00,59.0,45.0,-100.00,South,188,17.0,32.0,59,0.00,,,0.00,5.000000,,2013-09-16 02:32:00,
2013-09-15 20:42:00,59.0,45.0,-100.00,South,188,17.0,32.0,59,0.00,,,0.00,5.000000,,2013-09-16 02:42:00,
2013-09-15 20:51:00,57.0,45.0,-100.00,South,177,16.0,23.0,65,0.00,,,0.00,0.000000,,2013-09-16 02:51:00,
2013-09-15 21:22:00,57.0,45.0,-100.00,South,177,16.0,23.0,65,0.00,,,0.00,0.000000,,2013-09-16 03:22:00,
2013-09-15 21:34:00,57.0,45.0,-100.00,South,177,16.0,23.0,65,0.00,,,0.00,0.000000,,2013-09-16 03:34:00,
2013-09-15 21:45:00,57.0,45.0,-100.00,South,177,16.0,23.0,65,0.00,,,0.00,0.000000,,2013-09-16 03:45:00,
2013-09-15 21:51:00,55.0,45.0,-100.00,South,172,15.0,21.0,70,0.00,,,0.00,0.000000,,2013-09-16 03:51:00,
2013-09-15 22:24:00,55.0,45.0,-100.00,South,172,15.0,21.0,70,0.00,,,0.00,0.000000,,2013-09-16 04:24:00,
2013-09-15 22:34:00,55.0,45.0,-100.00,South,172,15.0,21.0,70,0.00,,,0.00,0.000000,,2013-09-16 04:34:00,
2013-09-15 22:43:00,55.0,45.0,-100.00,South,172,15.0,21.0,70,0.00,,,0.00,0.000000,,2013-09-16 04:43:00,
2013-09-15 22:51:00,55.0,47.0,-100.00,SSE,165,18.0,25.0,75,0.00,,,0.00,0.000000,,2013-09-16 04:51:00,
2013-09-15 23:22:00,55.0,47.0,-100.00,SSE,165,18.0,25.0,75,0.00,,,0.00,0.000000,,2013-09-16 05:22:00,
2013-09-15 23:33:00,55.0,47.0,-100.00,SSE,165,18.0,25.0,75,0.00,,,0.00,0.000000,,2013-09-16 05:33:00,
2013-09-15 23:44:00,55.0,47.0,-100.00,SSE,165,18.0,25.0,75,0.00,,,0.00,0.000000,,2013-09-16 05:44:00,
2013-09-15 23:51:00,56.0,50.0,-100.00,SSE,167,23.0,30.0,79,0.00,,,0.00,0.000000,,2013-09-16 05:51:00,